x

Smith Island, Wa (sisw1) Weather Station

9:00 - Wed 4th May 2016 All times are PDT. -7 hours from GMT.

  • Wind
    5mph, 7mph gusts
  • Air Temp 50°f
  • Sea Pressure 1018.9mb
  • Smith Island, Wa
  • Smith Island, Wa

More Historic Weather Station data

Upgrade to MSW Pro to gain access to the past 30 days of data for over 8000 Wavebouys and Weather Stations around the globe.

Join Pro

Comparision Forecast

View Surf forecast
   
mer. 05/04 9:00 5 7 mph 1018.9mb 50f
8:00 9 10 mph 1019mb 50f
7:00 18 20 mph 1018.7mb 49f
6:00 20 22 mph 1018.5mb 50f
5:00 18 21 mph 1018.5mb 50f
4:00 22 26 mph 1018.6mb 50f
3:00 23 29 mph 1018.6mb 50f
2:00 20 25 mph 1019.1mb 51f
1:00 23 31 mph 1019mb 51f
12:00 22 31 mph 1019mb 51f
mar. 05/03 11:00 26 31 mph 1018.8mb 51f
10:00 29 36 mph 1018.4mb 51f
9:00 18 26 mph 1018.3mb 52f
8:00 22 31 mph 1017.7mb 53f
7:00 24 28 mph 1017.5mb 53f
6:00 21 22 mph 1017.6mb 53f
5:00 18 25 mph 1017.5mb 55f
4:00 23 29 mph 1017.2mb 55f
3:00 15 21 mph 1017.6mb 55f
2:00 14 18 mph 1017.5mb 56f
1:00 10 14 mph 1017.5mb 56f
12:00 7 10 mph 1017.7mb 57f
11:00 8
mph
1017.4mb 56f
10:00 13 15 mph 1017.2mb 55f
9:00 10 11 mph 1016.8mb 54f
8:00 15 16 mph 1016.3mb 54f
7:00 13 16 mph 1016mb 54f
6:00 24 28 mph 1015.4mb 54f
5:00 11 14 mph 1014.7mb 53f
4:00 11 14 mph 1014.8mb 54f
3:00 7
mph
1014.8mb 54f
2:00 8 10 mph 1014.7mb 55f
1:00 2 3 mph 1014.8mb 53f
12:00 15 16 mph 1013.8mb 55f
lun. 05/02 11:00 11 13 mph 1013.6mb 56f
10:00 13
mph
1013.8mb 57f
9:00 7 8 mph 1013.2mb 60f
8:00 9 10 mph 1012.5mb 57f
7:00 2 3 mph 1012.1mb 64f
6:00 14 16 mph 1011.9mb 61f
5:00 11
mph
1011.9mb 60f
4:00 8 9 mph 1012mb 71f
3:00 14 15 mph 1012.7mb 68f
2:00 15 17 mph 1013.3mb 64f
1:00 11 14 mph 1014mb 64f
12:00 14 15 mph 1014.5mb 64f
11:00 8 9 mph 1014.6mb 61f
10:00 5 6 mph 1014.9mb 59f
9:00 3 5 mph 1015.1mb 56f
8:00 5
mph
1014.9mb 55f
7:00 2 3 mph 1014.6mb 54f
6:00 3 6 mph 1014.3mb 54f
5:00 21
mph
1013.8mb 55f
4:00 13
mph
1014.3mb 53f
3:00 6 7 mph 1014.3mb 53f
2:00 7 8 mph 1014mb 56f
1:00 7 8 mph 1014mb 53f
12:00 6
mph
1014.1mb 55f
dim. 05/01 11:00 3
mph
1014.4mb 59f
10:00 7 10 mph 1014.2mb 59f
9:00 8
mph
1013.9mb 57f
8:00  -  2 mph 1014mb 59f
7:00 3 5 mph 1014.3mb 61f
6:00 2
mph
1015.2mb 60f
5:00 1 2 mph 1016.1mb 62f
4:00 3 5 mph 1017.2mb 60f
3:00 5
mph
1018mb 58f
2:00 3 5 mph 1019mb 56f
1:00 2
mph
1020mb 57f
12:00 3 5 mph 1021.1mb 57f
11:00 2
mph
1021.7mb 53f
10:00  -  1 mph 1022.6mb 54f
9:00 2 3 mph 1023.4mb 52f
8:00 1 2 mph 1023.6mb 51f
7:00 2 3 mph 1023.8mb 50f
6:00 6
mph
1023.9mb 49f
5:00 6
mph
1024.3mb 48f
4:00  -  mph 1024.6mb 50f
3:00 5 6 mph 1025mb 51f
2:00 9 11 mph 1025.3mb 51f
1:00 8 9 mph 1025.9mb 51f
12:00 11 13 mph 1025.9mb 51f
sam. 04/30 11:00 14 15 mph 1026.3mb 51f
10:00 11 16 mph 1026.5mb 52f
9:00 14 17 mph 1026.3mb 52f
8:00 10 11 mph 1026.3mb 53f
7:00 3
mph
1026.5mb 55f
6:00 7 8 mph 1026.8mb 56f